• Join FlightAware (Why Join?)
  • Login
  • US Flag 
04:28PM EDT


 

Airport Tracker/Info


-or-


 

Live Flight TrackerFlight Track Log ✈ AWI3606 ✈ 31-Jul-2013 ✈ KDCA - KBGR

Flight Track Log - Related Links

Times and Time Zones

All times are in EDT time to prevent confusion due to time zone crossing. See the AWI3606 flight status page for this flight to view local times or setup timezone preferences in your user account.

Time Position Orientation Groundspeed Altitude Reporting Facility
EDT Latitude Longitude Course Direction KTS MPH feet Rate Location/Type
10:44PM 38.8167 -77.0333 57° Northeast 140 161 1,300  Level Potomac TRACON
10:45PM 38.7667 -77.0333 180° South 187 215 3,300 1,800 Climbing Potomac TRACON
10:46PM 38.9818 -76.6530 57° Northeast  Level FlightAware Approximate
10:46PM 38.7500 -76.9833 113° Southeast 246 283 4,900  Level Potomac TRACON
10:47PM 39.0306 -76.5250 67° East  Level FlightAware Approximate
10:47PM 38.8000 -76.9167 46° Northeast 273 314 7,000  Level Potomac TRACON
10:48PM 39.0818 -76.3981 61° Northeast  Level FlightAware Approximate
10:48PM 38.8672 -76.8475 39° Northeast 334 384 8,900  Level Washington Center
10:49PM 39.1167 -76.2665 57° Northeast  Level FlightAware Approximate
10:49PM 38.9261 -76.7869 39° Northeast 317 365 10,900  Level Washington Center
10:50PM 39.0078 -76.7697 North 301 346 12,800 1,860 Climbing Washington Center
10:51PM 39.0892 -76.7442 14° North 293 337 14,600 1,200 Climbing Washington Center
10:52PM 39.1111 -76.6242 77° East 277 319 15,200 900 Climbing Washington Center
10:53PM 39.1247 -76.4906 82° East 321 369 16,400 1,260 Climbing Washington Center
10:54PM 39.1381 -76.3569 83° East 348 400 17,800 1,140 Climbing Washington Center
10:55PM 39.1514 -76.2206 83° East 370 426 18,800 900 Climbing Washington Center
10:56PM 39.1708 -76.0789 80° East 386 444 19,700 960 Climbing Washington Center
10:57PM 39.1858 -75.9397 82° East 392 451 20,800 840 Climbing Washington Center
10:58PM 39.2425 -75.8194 59° Northeast 379 436 21,500 720 Climbing Washington Center
10:59PM 39.3197 -75.7150 46° Northeast 379 436 22,300 660 Climbing Washington Center
11:00PM 39.4011 -75.6131 44° Northeast 391 450 22,900 600 Climbing Washington Center
11:01PM 39.4822 -75.5081 45° Northeast 397 457 23,600 600 Climbing Washington Center
11:02PM 39.5633 -75.4006 46° Northeast 407 468 24,200 600 Climbing Washington Center
11:03PM 39.6464 -75.2925 45° Northeast 407 468 24,800 840 Climbing Washington Center
11:04PM 39.7253 -75.1842 47° Northeast 407 468 26,000 960 Climbing Washington Center
11:05PM 39.8106 -75.0569 49° Northeast 417 480 26,800 780 Climbing New York Center
11:06PM 39.8850 -74.9533 47° Northeast 417 480 27,600 720 Climbing New York Center
11:07PM 39.9619 -74.8414 48° Northeast 410 472 28,300 660 Climbing New York Center
11:08PM 40.0386 -74.7319 48° Northeast 400 460 29,000 300 Climbing New York Center
11:09PM 40.1133 -74.6222 48° Northeast 400 460 29,000  Level New York Center
11:10PM 40.1981 -74.5128 45° Northeast 410 472 29,000  Level New York Center
11:11PM 40.3356 -74.3539 41° Northeast 415 478 29,000  Level Boston Center
11:12PM 40.4247 -74.2556 40° Northeast 415 478 29,000  Level Boston Center
11:13PM 40.5139 -74.1544 41° Northeast 415 478 29,000  Level Boston Center
11:14PM 40.6072 -74.0475 41° Northeast 409 471 29,000  Level Boston Center
11:15PM 40.6981 -73.9539 38° Northeast 409 471 29,000  Level Boston Center
11:16PM 40.7847 -73.8544 41° Northeast 409 471 29,000  Level Boston Center
11:17PM 40.8608 -73.7683 41° Northeast 409 471 29,000  Level Boston Center
11:18PM 40.9644 -73.6386 43° Northeast 414 476 29,000  Level Boston Center
11:20PM 41.0528 -73.5467 38° Northeast 414 476 29,000  Level Boston Center
11:21PM 41.1392 -73.4461 41° Northeast 409 471 29,000  Level Boston Center
11:22PM 41.2256 -73.3481 40° Northeast 409 471 29,000  Level Boston Center
11:22PM 41.3097 -73.2469 42° Northeast 409 471 29,000  Level Boston Center
11:24PM 41.3789 -73.1650 42° Northeast 409 471 29,000  Level Boston Center
11:25PM 41.4797 -73.0469 41° Northeast 409 471 29,000  Level Boston Center
11:25PM 41.5614 -72.9478 42° Northeast 403 464 29,000  Level Boston Center
11:26PM 41.6472 -72.8483 41° Northeast 403 464 29,000  Level Boston Center
11:28PM 41.7331 -72.7461 42° Northeast 403 464 29,000  Level Boston Center
11:28PM 41.8231 -72.6406 41° Northeast 409 471 29,000  Level Boston Center
11:29PM 41.9044 -72.5406 42° Northeast 409 471 29,000  Level Boston Center
11:31PM 41.9878 -72.4372 43° Northeast 409 471 29,000  Level Boston Center
11:32PM 42.0753 -72.3339 41° Northeast 409 471 29,000  Level Boston Center
11:32PM 42.1625 -72.2328 41° Northeast 409 471 29,000  Level Boston Center
11:33PM 42.2458 -72.1289 43° Northeast 409 471 29,000  Level Boston Center
11:34PM 42.3331 -72.0244 42° Northeast 409 471 29,000  Level Boston Center
11:36PM 42.4158 -71.9228 42° Northeast 409 471 29,000  Level Boston Center
11:37PM 42.5031 -71.8206 41° Northeast 409 471 29,000  Level Boston Center
11:37PM 42.5878 -71.7125 43° Northeast 409 471 29,000  Level Boston Center
11:39PM 42.6725 -71.6069 42° Northeast 409 471 29,000  Level Boston Center
11:40PM 42.7633 -71.5042 40° Northeast 415 478 29,000 -60 Level Boston Center
11:41PM 42.8686 -71.3722 43° Northeast 415 478 28,900  Descending Boston Center
11:42PM 42.9714 -71.2397 43° Northeast 415 478 29,000  Climbing Boston Center
11:43PM 43.0578 -71.1331 42° Northeast 415 478 29,000  Level Boston Center
11:44PM 43.1439 -71.0231 43° Northeast 415 478 29,000  Level Boston Center
11:45PM 43.2322 -70.9128 42° Northeast 415 478 29,000  Level Boston Center
11:46PM 43.3181 -70.7992 44° Northeast 415 478 29,000  Level Boston Center
11:47PM 43.4039 -70.6883 43° Northeast 415 478 29,000 -60 Level Boston Center
11:48PM 43.4897 -70.5800 42° Northeast 415 478 28,900 -60 Descending Boston Center
11:49PM 43.5775 -70.4683 43° Northeast 415 478 28,900  Level Boston Center
11:50PM 43.6672 -70.3506 43° Northeast 415 478 29,000 -840 Climbing Boston Center
11:51PM 43.7486 -70.2442 43° Northeast 418 481 27,300 -1,920 Descending Boston Center
11:52PM 43.8400 -70.1228 44° Northeast 440 506 25,100 -2,100 Descending Boston Center
11:53PM 43.9231 -70.0131 44° Northeast 434 499 23,100 -2,040 Descending Boston Center
11:55PM 44.0349 -69.8561 47° Northeast  Level FlightAware Approximate
11:55PM 44.1117 -69.7711 47° Northeast 407 468 18,700  Level Boston Center
11:57PM 44.2044 -69.6185 47° Northeast  Level FlightAware Approximate
11:58PM 44.3167 -69.4658 47° Northeast 359 413 13,500  Level Boston Center
12:00AM 44.4230 -69.3281 46° Northeast  Level FlightAware Approximate
12:01AM 44.4694 -69.1847 50° Northeast 299 344 8,200  Level Boston Center
12:02AM 44.5150 -69.0978 54° Northeast 285 328 6,800 -1,440 Descending Boston Center
12:03AM 44.5583 -69.0136 54° Northeast 272 313 5,400 -1,380 Descending Boston Center
12:04AM 44.6039 -68.9322 52° Northeast 267 307 4,100 -1,080 Descending Boston Center
12:05AM 44.6433 -68.8569 54° Northeast 254 292 3,200 -720 Descending Boston Center
12:07AM 44.8000 -68.8167 50° Northeast  Level FlightAware Approximate
12:07AM 44.7818 -68.8327 50° Northeast  Level Estimated
12:08AM 44.7589 -68.7592 50° Northeast 164 189 1,300  Level Boston Center